Time;durP1;ratioP1;P1;durP2;ratioP2;P2;SDS_P1;SDS_P2;PMS_P1;PMS_P2;Temp;Humidity;BMP_temperature;BMP_pressure;BME280_temperature;BME280_humidity;BME280_pressure;Samples;Min_cycle;Max_cycle;Signal;HPM_P1;HPM_P2
2023/06/05 00:02:16;;;;;;;0.30;0.30;;;10.80;99.90;;;;;;5067959;28;20131;-74
2023/06/05 00:04:43;;;;;;;0.40;0.40;;;10.80;99.90;;;;;;5051732;28;20041;-74
2023/06/05 00:07:08;;;;;;;0.30;0.30;;;10.80;99.90;;;;;;5068114;28;20071;-73
2023/06/05 00:09:35;;;;;;;0.35;0.35;;;10.80;99.90;;;;;;5068117;28;20040;-74
2023/06/05 00:12:01;;;;;;;0.30;0.30;;;10.90;99.90;;;;;;5067799;28;20124;-73
2023/06/05 00:14:26;;;;;;;0.40;0.40;;;10.90;99.90;;;;;;5067399;28;20561;-74
2023/06/05 00:16:52;;;;;;;0.40;0.40;;;10.90;99.90;;;;;;5084768;28;20041;-74
2023/06/05 00:19:18;;;;;;;0.40;0.40;;;10.90;99.90;;;;;;5050788;28;20040;-74
2023/06/05 00:21:43;;;;;;;0.40;0.40;;;10.90;99.90;;;;;;5051175;28;20044;-74
2023/06/05 00:24:09;;;;;;;0.20;0.20;;;10.90;99.90;;;;;;5067906;28;20040;-74
2023/06/05 00:26:35;;;;;;;0.30;0.30;;;10.90;99.90;;;;;;5050908;28;20045;-74
2023/06/05 00:29:00;;;;;;;0.40;0.40;;;10.90;99.90;;;;;;5031623;28;20106;-74
2023/06/05 00:31:27;;;;;;;0.40;0.40;;;10.90;99.90;;;;;;5030824;28;20048;-74
2023/06/05 00:33:52;;;;;;;0.30;0.30;;;10.90;99.90;;;;;;5054161;28;20530;-74
2023/06/05 00:36:22;;;;;;;0.20;0.20;;;10.90;99.90;;;;;;5067224;28;20048;-74
2023/06/05 00:38:50;;;;;;;0.32;0.32;;;11.00;99.90;;;;;;5067764;28;20056;-74
2023/06/05 00:41:16;;;;;;;0.43;0.43;;;11.00;99.90;;;;;;5050767;28;20049;-74
2023/06/05 00:43:41;;;;;;;0.20;0.20;;;11.00;99.90;;;;;;5082639;28;20955;-74
2023/06/05 00:46:07;;;;;;;0.38;0.38;;;11.10;99.90;;;;;;5067787;28;20131;-74
2023/06/05 00:48:34;;;;;;;0.38;0.38;;;11.10;99.90;;;;;;5067088;28;20493;-74
2023/06/05 00:51:00;;;;;;;0.40;0.40;;;11.10;99.90;;;;;;5020351;28;20041;-74
2023/06/05 00:53:27;;;;;;;0.35;0.35;;;11.10;99.90;;;;;;5064601;28;20390;-74
2023/06/05 00:55:54;;;;;;;0.40;0.40;;;11.10;99.90;;;;;;5067903;28;20409;-74
2023/06/05 00:58:20;;;;;;;0.40;0.40;;;11.10;99.90;;;;;;5067279;28;20562;-73
2023/06/05 01:00:49;;;;;;;0.43;0.43;;;11.10;99.90;;;;;;5067502;28;20053;-74
2023/06/05 01:03:16;;;;;;;0.30;0.30;;;11.10;99.90;;;;;;5067208;28;20075;-73
2023/06/05 01:05:43;;;;;;;0.32;0.32;;;11.10;99.90;;;;;;5067659;28;20118;-73
2023/06/05 01:08:12;;;;;;;0.40;0.40;;;11.10;99.90;;;;;;5067560;28;20064;-73
2023/06/05 01:10:38;;;;;;;0.40;0.40;;;11.20;99.90;;;;;;5068834;28;20055;-73
2023/06/05 01:13:29;;;;;;;0.40;0.40;;;11.10;99.90;;;;;;5071164;28;20048;-73
2023/06/05 01:15:56;;;;;;;0.40;0.40;;;11.20;99.90;;;;;;5050990;28;20110;-73
2023/06/05 01:18:23;;;;;;;0.30;0.30;;;11.20;99.90;;;;;;5067430;28;20444;-75
2023/06/05 01:20:48;;;;;;;0.30;0.30;;;11.10;99.90;;;;;;5050808;28;20398;-74
2023/06/05 01:23:14;;;;;;;0.30;0.30;;;11.20;99.90;;;;;;5050861;28;20055;-74
2023/06/05 01:25:41;;;;;;;0.40;0.40;;;11.20;99.90;;;;;;5060133;28;20071;-74
2023/06/05 01:28:17;;;;;;;0.30;0.30;;;11.10;99.90;;;;;;5071092;28;20044;-74
2023/06/05 01:31:01;;;;;;;0.22;0.22;;;11.10;99.90;;;;;;5070941;28;20036;-74
2023/06/05 01:33:34;;;;;;;0.30;0.30;;;11.10;99.90;;;;;;5070058;28;20050;-74
2023/06/05 01:36:04;;;;;;;0.30;0.30;;;11.10;99.90;;;;;;5070748;28;20080;-75
2023/06/05 01:38:35;;;;;;;0.30;0.30;;;11.10;99.90;;;;;;5070374;28;20059;-74
2023/06/05 01:41:03;;;;;;;0.30;0.30;;;11.10;99.90;;;;;;5070276;28;20040;-74
2023/06/05 01:43:30;;;;;;;0.40;0.40;;;11.10;99.90;;;;;;5084078;28;20385;-75
2023/06/05 01:45:58;;;;;;;0.40;0.40;;;11.10;99.90;;;;;;5056037;28;20041;-74
2023/06/05 01:48:27;;;;;;;0.38;0.38;;;11.10;99.90;;;;;;5038902;28;20044;-74
2023/06/05 01:51:00;;;;;;;0.20;0.20;;;11.10;99.90;;;;;;5070177;28;20505;-74
2023/06/05 01:53:27;;;;;;;0.28;0.28;;;11.10;99.90;;;;;;5069246;28;20343;-74
2023/06/05 01:55:57;;;;;;;0.30;0.30;;;11.10;99.90;;;;;;5053422;28;20048;-74
2023/06/05 01:58:23;;;;;;;0.30;0.30;;;11.10;99.90;;;;;;5069900;28;20094;-74
2023/06/05 02:00:49;;;;;;;0.40;0.40;;;11.10;99.90;;;;;;5070189;28;20127;-74
2023/06/05 02:03:18;;;;;;;0.30;0.30;;;11.10;99.90;;;;;;5071048;28;20127;-73
2023/06/05 02:05:44;;;;;;;0.30;0.30;;;11.10;99.90;;;;;;5070895;28;20055;-73
2023/06/05 02:08:10;;;;;;;0.28;0.28;;;11.10;99.90;;;;;;5070337;28;20098;-74
2023/06/05 02:10:42;;;;;;;0.63;0.63;;;11.10;99.90;;;;;;5070178;28;20040;-73
2023/06/05 02:13:09;;;;;;;0.30;0.30;;;11.20;99.90;;;;;;5070093;28;20041;-73
2023/06/05 02:15:35;;;;;;;;;;;11.20;99.90;;;;;;5069823;28;20040;-74
2023/06/05 02:18:02;;;;;;;0.40;0.40;;;11.20;99.90;;;;;;5070013;28;20078;-73
2023/06/05 02:20:28;;;;;;;0.32;0.32;;;11.20;99.90;;;;;;5069671;28;20045;-73
2023/06/05 02:22:54;;;;;;;0.38;0.38;;;11.20;99.90;;;;;;5069533;28;20052;-73
2023/06/05 02:25:21;;;;;;;0.30;0.30;;;11.20;99.90;;;;;;5063379;28;20051;-73
2023/06/05 02:27:47;;;;;;;0.30;0.30;;;11.20;99.90;;;;;;5049872;28;20044;-73
2023/06/05 02:30:13;;;;;;;0.40;0.40;;;11.20;99.90;;;;;;5049926;28;20047;-75
2023/06/05 02:32:43;;;;;;;0.30;0.30;;;11.20;99.90;;;;;;5049269;28;20037;-75
2023/06/05 02:35:10;;;;;;;0.30;0.30;;;11.20;99.90;;;;;;5066178;28;20052;-74
2023/06/05 02:37:46;;;;;;;0.43;0.43;;;11.20;99.90;;;;;;5068839;28;20051;-74
2023/06/05 02:40:14;;;;;;;0.30;0.30;;;11.10;99.90;;;;;;5073309;28;20078;-74
2023/06/05 02:42:40;;;;;;;0.30;0.30;;;11.20;99.90;;;;;;5062178;28;20028;-74
2023/06/05 02:45:07;;;;;;;0.30;0.30;;;11.20;99.90;;;;;;5077177;28;20046;-74
2023/06/05 02:47:33;;;;;;;0.35;0.35;;;11.20;99.90;;;;;;5052092;28;20506;-74
2023/06/05 02:49:59;;;;;;;0.40;0.40;;;11.20;99.90;;;;;;5068995;28;20123;-74
2023/06/05 02:52:25;;;;;;;0.28;0.28;;;11.20;99.90;;;;;;5068607;28;20056;-74
2023/06/05 02:54:52;;;;;;;0.60;0.60;;;11.20;99.90;;;;;;5069381;28;20550;-74
2023/06/05 02:57:18;;;;;;;0.20;0.20;;;11.20;99.90;;;;;;5068942;28;20581;-74
2023/06/05 02:59:44;;;;;;;0.20;0.20;;;11.20;99.90;;;;;;5068362;28;20048;-73
2023/06/05 03:02:10;;;;;;;;;;;11.20;99.90;;;;;;5069147;28;20535;-74
2023/06/05 03:04:39;;;;;;;0.30;0.30;;;11.20;99.90;;;;;;5068436;28;19916;-73
2023/06/05 03:07:05;;;;;;;0.30;0.30;;;11.20;99.90;;;;;;5068908;28;20094;-75
2023/06/05 03:09:31;;;;;;;0.43;0.43;;;11.20;99.90;;;;;;5068721;28;20037;-74
2023/06/05 03:12:00;;;;;;;0.28;0.28;;;11.20;99.90;;;;;;5069538;28;20047;-75
2023/06/05 03:14:30;;;;;;;0.20;0.20;;;11.30;99.90;;;;;;5051574;28;20037;-75
2023/06/05 03:16:58;;;;;;;0.35;0.35;;;11.20;99.90;;;;;;5052202;28;20036;-74
2023/06/05 03:19:24;;;;;;;0.40;0.40;;;11.30;99.90;;;;;;5067461;28;20048;-74
2023/06/05 03:21:50;;;;;;;0.40;0.40;;;11.20;99.90;;;;;;5067670;28;20504;-75
2023/06/05 03:24:16;;;;;;;0.43;0.43;;;11.30;99.90;;;;;;5035057;28;20055;-74
2023/06/05 03:26:42;;;;;;;0.60;0.60;;;11.30;99.90;;;;;;5050655;28;20056;-75
2023/06/05 03:29:09;;;;;;;0.50;0.35;;;11.30;99.90;;;;;;5048980;28;20498;-75
2023/06/05 03:31:35;;;;;;;0.30;0.30;;;11.30;99.90;;;;;;5048279;28;20032;-74
2023/06/05 03:34:03;;;;;;;0.30;0.30;;;11.30;99.90;;;;;;5039341;28;20119;-75
2023/06/05 03:36:30;;;;;;;0.40;0.40;;;11.30;99.90;;;;;;5072285;28;20081;-74
2023/06/05 03:38:56;;;;;;;0.43;0.43;;;11.40;99.90;;;;;;5054241;28;20049;-74
2023/06/05 03:41:23;;;;;;;0.40;0.40;;;11.30;99.90;;;;;;5068249;28;20048;-74
2023/06/05 03:43:52;;;;;;;0.30;0.30;;;11.30;99.90;;;;;;5083486;28;20044;-75
2023/06/05 03:46:18;;;;;;;0.30;0.30;;;11.40;99.90;;;;;;5068547;28;20041;-74
2023/06/05 03:49:09;;;;;;;0.20;0.20;;;11.40;99.90;;;;;;5047925;28;20121;-75
2023/06/05 03:51:34;;;;;;;0.32;0.32;;;11.40;99.90;;;;;;5057041;28;20472;-74
2023/06/05 03:54:00;;;;;;;0.30;0.30;;;11.40;99.90;;;;;;5068646;28;20088;-75
2023/06/05 03:56:33;;;;;;;0.30;0.30;;;11.40;99.90;;;;;;5051627;28;20046;-74
2023/06/05 03:59:08;;;;;;;0.40;0.40;;;11.40;99.90;;;;;;5069638;28;20045;-74
2023/06/05 04:01:37;;;;;;;0.30;0.30;;;11.40;99.90;;;;;;5067721;28;20404;-74
2023/06/05 04:04:05;;;;;;;0.28;0.28;;;11.50;99.90;;;;;;5068279;28;20355;-74
2023/06/05 04:06:32;;;;;;;0.30;0.30;;;11.50;99.90;;;;;;5051314;28;20044;-72
2023/06/05 04:08:58;;;;;;;0.30;0.30;;;11.50;99.90;;;;;;5052658;28;20041;-75
2023/06/05 04:11:26;;;;;;;0.25;0.25;;;11.50;99.90;;;;;;5068036;28;20048;-74
2023/06/05 04:13:55;;;;;;;0.30;0.30;;;11.30;99.90;;;;;;5067909;28;20497;-75
2023/06/05 04:16:21;;;;;;;0.30;0.30;;;11.60;99.90;;;;;;5068134;28;20048;-75
2023/06/05 04:18:46;;;;;;;0.30;0.30;;;11.60;99.90;;;;;;5069148;28;20436;-75
2023/06/05 04:21:12;;;;;;;0.30;0.30;;;11.60;99.90;;;;;;5051332;28;20052;-75
2023/06/05 04:23:38;;;;;;;0.38;0.38;;;11.70;99.90;;;;;;5068210;28;20144;-75
2023/06/05 04:26:04;;;;;;;0.40;0.40;;;11.70;99.90;;;;;;5039509;28;20175;-73
2023/06/05 04:28:31;;;;;;;0.30;0.30;;;11.70;99.90;;;;;;5047539;28;20049;-74
2023/06/05 04:30:56;;;;;;;0.40;0.40;;;11.80;99.90;;;;;;5048402;28;20494;-74
2023/06/05 04:33:22;;;;;;;0.30;0.30;;;11.80;99.90;;;;;;5064217;28;20052;-74
2023/06/05 04:35:48;;;;;;;0.30;0.30;;;11.80;99.90;;;;;;5067707;28;20040;-75
2023/06/05 04:38:14;;;;;;;0.32;0.32;;;11.80;99.90;;;;;;5067690;28;20040;-75
2023/06/05 04:40:40;;;;;;;0.22;0.22;;;11.90;99.90;;;;;;5067302;28;20106;-75
2023/06/05 04:43:08;;;;;;;0.30;0.30;;;11.90;99.90;;;;;;5078594;28;20362;-74
2023/06/05 04:45:35;;;;;;;0.30;0.30;;;12.00;99.90;;;;;;5056197;28;20040;-75
2023/06/05 04:48:00;;;;;;;;;;;12.00;99.90;;;;;;5071948;28;20079;-74
2023/06/05 04:50:27;;;;;;;0.30;0.30;;;12.00;99.90;;;;;;5055215;28;19955;-75
2023/06/05 04:52:53;;;;;;;0.40;0.40;;;12.10;99.90;;;;;;5071271;28;20064;-74
2023/06/05 04:55:19;;;;;;;;;;;12.10;99.90;;;;;;5071813;28;20078;-75
2023/06/05 04:57:45;;;;;;;0.25;0.25;;;12.10;99.90;;;;;;5071235;28;19979;-75
2023/06/05 05:00:12;;;;;;;0.30;0.30;;;12.20;99.90;;;;;;5071198;28;20087;-75
2023/06/05 05:02:37;;;;;;;0.30;0.30;;;12.30;99.90;;;;;;5070669;28;20047;-75
2023/06/05 05:05:04;;;;;;;0.28;0.28;;;12.40;99.90;;;;;;5054710;28;20044;-74
2023/06/05 05:07:30;;;;;;;0.30;0.30;;;12.50;99.90;;;;;;5070551;28;20047;-74
2023/06/05 05:09:56;;;;;;;0.40;0.40;;;12.50;99.90;;;;;;5071222;28;20049;-75
2023/06/05 05:12:22;;;;;;;0.40;0.40;;;12.50;99.90;;;;;;5071335;28;20409;-75
2023/06/05 05:14:47;;;;;;;0.40;0.40;;;12.50;99.90;;;;;;5054267;28;20048;-75
2023/06/05 05:17:15;;;;;;;0.25;0.25;;;12.50;99.90;;;;;;5071245;28;20045;-74
2023/06/05 05:19:40;;;;;;;0.30;0.30;;;12.60;99.90;;;;;;5070755;28;20087;-75
2023/06/05 05:22:07;;;;;;;0.20;0.20;;;12.60;99.90;;;;;;5070792;28;20386;-74
2023/06/05 05:24:32;;;;;;;;;;;12.70;99.90;;;;;;5070751;28;20501;-75
2023/06/05 05:26:58;;;;;;;0.30;0.30;;;12.70;99.90;;;;;;5070837;28;20296;-75
2023/06/05 05:29:23;;;;;;;0.28;0.28;;;12.70;99.90;;;;;;5077566;28;20077;-75
2023/06/05 05:31:50;;;;;;;0.30;0.30;;;12.80;99.90;;;;;;5070424;28;20053;-75
2023/06/05 05:34:17;;;;;;;0.30;0.30;;;12.80;99.90;;;;;;5070740;28;20067;-75
2023/06/05 05:36:42;;;;;;;0.30;0.30;;;12.90;99.90;;;;;;5071539;28;20151;-75
2023/06/05 05:39:09;;;;;;;0.28;0.28;;;13.00;99.90;;;;;;5070762;28;20048;-75
2023/06/05 05:41:35;;;;;;;0.30;0.30;;;13.10;99.90;;;;;;5070046;28;20049;-75
2023/06/05 05:44:01;;;;;;;0.40;0.40;;;13.10;99.90;;;;;;5086889;28;20090;-75
2023/06/05 05:46:28;;;;;;;0.40;0.40;;;13.20;99.90;;;;;;5070729;28;20041;-75
2023/06/05 05:48:54;;;;;;;0.30;0.30;;;13.20;99.90;;;;;;5069807;28;20381;-75
2023/06/05 05:51:21;;;;;;;;;;;13.20;99.90;;;;;;5053797;28;20485;-75
2023/06/05 05:53:46;;;;;;;0.20;0.20;;;13.30;99.90;;;;;;5069868;28;19997;-75
2023/06/05 05:56:12;;;;;;;0.30;0.30;;;13.30;99.90;;;;;;5071295;28;20485;-75
2023/06/05 05:58:38;;;;;;;;;;;13.30;99.90;;;;;;5069643;28;20045;-75
2023/06/05 06:01:04;;;;;;;0.30;0.30;;;13.30;99.90;;;;;;5070005;28;19973;-74
2023/06/05 06:03:29;;;;;;;0.40;0.40;;;13.40;99.90;;;;;;5054451;28;20071;-74
2023/06/05 06:05:57;;;;;;;0.30;0.30;;;13.50;99.90;;;;;;5070208;28;20044;-75
2023/06/05 06:08:22;;;;;;;0.63;0.63;;;13.50;99.90;;;;;;5070516;28;20464;-75
2023/06/05 06:10:48;;;;;;;0.63;0.63;;;13.60;99.90;;;;;;5070007;28;20044;-75
2023/06/05 06:13:14;;;;;;;;;;;13.60;99.90;;;;;;5070588;28;20478;-75
2023/06/05 06:15:40;;;;;;;0.30;0.30;;;13.60;99.90;;;;;;5069397;28;20049;-75
2023/06/05 06:18:06;;;;;;;;;;;13.70;99.90;;;;;;5070482;28;20049;-75
2023/06/05 06:20:33;;;;;;;0.30;0.30;;;13.60;99.90;;;;;;5069778;28;20289;-74
2023/06/05 06:22:59;;;;;;;0.25;0.25;;;13.60;99.90;;;;;;5052841;28;20041;-75
2023/06/05 06:25:28;;;;;;;;;;;13.50;99.90;;;;;;5075547;28;20116;-75
2023/06/05 06:27:58;;;;;;;0.40;0.40;;;13.30;99.90;;;;;;5070014;28;19927;-74
2023/06/05 06:30:25;;;;;;;0.30;0.30;;;13.20;99.90;;;;;;5070737;28;20044;-75
2023/06/05 06:32:50;;;;;;;0.22;0.22;;;13.20;99.90;;;;;;5069558;28;20040;-74
2023/06/05 06:35:16;;;;;;;0.25;0.25;;;13.20;99.90;;;;;;5052876;28;20549;-74
2023/06/05 06:37:42;;;;;;;0.30;0.30;;;13.10;99.90;;;;;;5069328;28;20048;-75
2023/06/05 06:40:09;;;;;;;1.13;0.88;;;13.20;99.90;;;;;;5069530;28;20448;-74
2023/06/05 06:42:35;;;;;;;;;;;13.30;99.90;;;;;;5076206;28;20044;-74
2023/06/05 06:45:01;;;;;;;1.25;0.85;;;13.50;99.90;;;;;;5077636;28;20011;-75
2023/06/05 06:47:27;;;;;;;0.30;0.30;;;13.90;99.90;;;;;;5052763;28;20044;-75
2023/06/05 06:49:53;;;;;;;0.22;0.22;;;14.20;99.90;;;;;;5052697;28;20048;-75
2023/06/05 06:52:20;;;;;;;0.40;0.40;;;14.60;99.90;;;;;;5070539;28;20060;-75
2023/06/05 06:54:46;;;;;;;0.30;0.30;;;14.80;99.90;;;;;;5069293;28;20052;-75
2023/06/05 06:57:12;;;;;;;0.68;0.68;;;14.90;99.90;;;;;;5069379;28;20048;-75
2023/06/05 06:59:40;;;;;;;0.20;0.20;;;15.00;99.90;;;;;;5069132;28;20056;-75
2023/06/05 07:02:14;;;;;;;0.35;0.35;;;15.20;99.90;;;;;;5068825;28;20090;-75
2023/06/05 07:04:43;;;;;;;0.30;0.30;;;15.40;99.90;;;;;;5068932;28;20045;-75
2023/06/05 07:07:14;;;;;;;0.55;0.55;;;15.40;99.90;;;;;;5068890;28;20049;-75
2023/06/05 07:09:44;;;;;;;0.30;0.30;;;15.20;99.90;;;;;;5051427;28;20493;-75
2023/06/05 07:12:11;;;;;;;0.20;0.20;;;15.10;99.90;;;;;;5069168;28;20359;-75
2023/06/05 07:14:38;;;;;;;0.20;0.20;;;15.00;99.90;;;;;;5068573;28;20040;-75
2023/06/05 07:17:04;;;;;;;0.20;0.20;;;15.00;99.90;;;;;;5051608;28;20370;-75
2023/06/05 07:19:31;;;;;;;0.30;0.30;;;15.30;99.90;;;;;;5052377;28;20044;-75
2023/06/05 07:21:58;;;;;;;0.30;0.30;;;15.50;99.90;;;;;;5074960;28;20093;-75
2023/06/05 07:24:30;;;;;;;0.30;0.30;;;15.90;99.90;;;;;;5068409;28;20040;-76
2023/06/05 07:27:03;;;;;;;0.15;0.15;;;16.10;99.90;;;;;;5068417;28;20097;-75
2023/06/05 07:29:30;;;;;;;0.30;0.30;;;16.30;99.90;;;;;;5068716;28;20093;-75
2023/06/05 07:31:56;;;;;;;0.20;0.20;;;16.50;99.90;;;;;;5068034;28;20044;-75
2023/06/05 07:34:23;;;;;;;1.35;0.35;;;16.80;99.90;;;;;;5068640;28;20397;-76
2023/06/05 07:36:51;;;;;;;0.20;0.20;;;16.90;99.90;;;;;;5068454;28;20097;-75
2023/06/05 07:39:18;;;;;;;0.20;0.20;;;17.00;99.90;;;;;;5069912;28;20040;-75
2023/06/05 07:41:44;;;;;;;0.40;0.40;;;17.20;99.90;;;;;;5069515;28;20071;-75
2023/06/05 07:44:12;;;;;;;;;;;17.10;99.90;;;;;;5084052;28;20482;-76
2023/06/05 07:46:45;;;;;;;0.20;0.20;;;17.00;99.90;;;;;;5068684;28;19920;-75
2023/06/05 07:49:11;;;;;;;0.30;0.30;;;16.90;99.90;;;;;;5068365;28;20032;-75
2023/06/05 07:51:37;;;;;;;;;;;16.60;99.90;;;;;;5068703;28;20093;-75
2023/06/05 07:54:11;;;;;;;0.30;0.30;;;16.20;99.90;;;;;;5067810;28;19931;-75
2023/06/05 07:56:38;;;;;;;0.20;0.20;;;15.90;99.90;;;;;;5068557;28;20056;-75
2023/06/05 07:59:05;;;;;;;0.28;0.28;;;15.80;99.90;;;;;;5068199;28;20036;-75
2023/06/05 08:01:31;;;;;;;0.35;0.35;;;15.90;99.90;;;;;;5067956;28;20401;-76
2023/06/05 08:03:57;;;;;;;0.55;0.50;;;16.00;99.90;;;;;;5068153;28;20086;-75
2023/06/05 08:06:24;;;;;;;0.28;0.28;;;16.20;99.90;;;;;;5068290;28;20076;-75
2023/06/05 08:08:50;;;;;;;0.30;0.30;;;16.40;99.90;;;;;;5067593;28;20040;-75
2023/06/05 08:11:16;;;;;;;0.65;0.65;;;16.70;99.90;;;;;;5068201;28;20456;-75
2023/06/05 08:13:42;;;;;;;;;;;16.90;99.90;;;;;;5068491;28;20045;-75
2023/06/05 08:16:07;;;;;;;0.30;0.30;;;16.90;99.90;;;;;;5068318;28;19916;-75
2023/06/05 08:18:33;;;;;;;;;;;18.10;99.90;;;;;;5075585;28;20481;-75
2023/06/05 08:20:59;;;;;;;0.30;0.30;;;16.70;99.90;;;;;;5069691;28;19964;-75
2023/06/05 08:23:26;;;;;;;;;;;16.50;99.90;;;;;;5072397;28;20137;-75
2023/06/05 08:25:52;;;;;;;0.80;0.47;;;16.50;99.90;;;;;;5071823;28;20034;-75
2023/06/05 08:28:17;;;;;;;;;;;16.40;99.90;;;;;;5055778;28;20126;-75
2023/06/05 08:30:46;;;;;;;0.20;0.20;;;16.40;99.90;;;;;;5055085;28;19988;-75
2023/06/05 08:33:12;;;;;;;0.10;0.10;;;16.40;99.90;;;;;;5055713;28;20142;-75
2023/06/05 08:35:41;;;;;;;;;;;16.50;99.90;;;;;;5072280;28;20240;-75
2023/06/05 08:38:07;;;;;;;0.20;0.20;;;16.50;99.90;;;;;;5071193;28;20511;-75
2023/06/05 08:40:33;;;;;;;0.30;0.30;;;16.60;99.90;;;;;;5071677;28;20041;-75
2023/06/05 08:43:03;;;;;;;0.30;0.30;;;16.50;99.90;;;;;;5080999;28;20044;-75
2023/06/05 08:45:31;;;;;;;0.20;0.20;;;16.30;99.90;;;;;;5077340;28;20036;-75
2023/06/05 08:48:00;;;;;;;0.20;0.20;;;16.30;99.90;;;;;;5071149;28;20051;-75
2023/06/05 08:50:30;;;;;;;0.40;0.40;;;16.30;99.90;;;;;;5071586;28;20499;-75
2023/06/05 08:53:02;;;;;;;0.30;0.30;;;16.40;99.90;;;;;;5069919;28;20112;-75
2023/06/05 08:55:27;;;;;;;0.30;0.30;;;16.70;99.90;;;;;;5071262;28;20056;-75
2023/06/05 08:57:53;;;;;;;;;;;16.90;99.90;;;;;;5071542;28;20051;-75
2023/06/05 09:00:19;;;;;;;0.20;0.20;;;17.10;99.90;;;;;;5071790;28;19928;-76
2023/06/05 09:02:48;;;;;;;1.13;1.13;;;17.30;99.90;;;;;;5071875;28;20119;-76
2023/06/05 09:05:17;;;;;;;1.13;1.05;;;17.30;99.90;;;;;;5071354;28;20390;-76
2023/06/05 09:07:43;;;;;;;1.05;0.98;;;17.20;99.90;;;;;;5071755;28;20409;-75
2023/06/05 09:10:21;;;;;;;;;;;17.20;99.90;;;;;;5071443;28;20051;-76
2023/06/05 09:12:54;;;;;;;0.57;0.47;;;17.20;99.90;;;;;;5071358;28;20372;-76
2023/06/05 09:15:24;;;;;;;0.28;0.28;;;17.20;99.90;;;;;;5078403;28;20128;-75
2023/06/05 09:18:12;;;;;;;0.50;0.50;;;17.30;99.90;;;;;;5070692;28;20048;-76
2023/06/05 09:20:40;;;;;;;0.28;0.28;;;17.40;99.90;;;;;;5071350;28;20151;-75
2023/06/05 09:23:28;;;;;;;0.28;0.28;;;17.30;99.90;;;;;;5070682;28;20110;-76
2023/06/05 09:25:57;;;;;;;0.22;0.22;;;17.30;99.90;;;;;;5070850;28;20040;-75
2023/06/05 09:28:23;;;;;;;0.20;0.20;;;17.20;99.90;;;;;;5070844;28;20046;-76
2023/06/05 09:30:58;;;;;;;;;;;17.10;99.90;;;;;;5054589;28;20044;-76
2023/06/05 09:33:25;;;;;;;0.30;0.30;;;17.10;99.90;;;;;;5071573;28;19921;-75
2023/06/05 09:36:12;;;;;;;0.47;0.40;;;17.20;99.90;;;;;;5055354;28;20389;-76
2023/06/05 09:38:40;;;;;;;0.30;0.30;;;17.30;99.90;;;;;;5071790;28;20760;-76
2023/06/05 09:41:10;;;;;;;0.20;0.20;;;17.30;99.90;;;;;;5070705;28;20131;-75
2023/06/05 09:43:37;;;;;;;0.40;0.40;;;17.10;99.90;;;;;;5068935;28;20055;-76
2023/06/05 09:46:21;;;;;;;0.20;0.20;;;16.90;99.90;;;;;;5070249;28;20040;-76
2023/06/05 09:48:56;;;;;;;0.30;0.30;;;16.60;99.90;;;;;;5070574;28;20136;-76
2023/06/05 09:51:22;;;;;;;0.30;0.30;;;16.50;99.90;;;;;;5050253;28;20063;-76
2023/06/05 09:53:49;;;;;;;;;;;16.70;99.90;;;;;;5042610;28;20052;-76
2023/06/05 09:56:16;;;;;;;0.63;0.63;;;16.90;99.90;;;;;;5070682;28;20292;-76
2023/06/05 09:58:48;;;;;;;0.20;0.20;;;17.10;99.90;;;;;;5070718;28;20123;-75
2023/06/05 10:01:22;;;;;;;0.30;0.30;;;17.30;99.90;;;;;;5070267;28;20048;-76
2023/06/05 10:03:57;;;;;;;0.70;0.70;;;17.60;99.90;;;;;;5070841;28;20044;-76
2023/06/05 10:06:25;;;;;;;0.40;0.40;;;17.80;99.90;;;;;;5053620;28;20080;-76
2023/06/05 10:08:55;;;;;;;0.30;0.30;;;17.90;99.90;;;;;;5070206;28;20068;-76
2023/06/05 10:11:23;;;;;;;0.25;0.25;;;18.10;99.90;;;;;;5078499;28;20044;-76
2023/06/05 10:13:49;;;;;;;0.28;0.28;;;18.30;99.90;;;;;;5053844;28;20051;-76
2023/06/05 10:16:17;;;;;;;0.30;0.30;;;18.50;99.90;;;;;;5053729;28;20051;-75
2023/06/05 10:18:49;;;;;;;0.20;0.20;;;18.50;99.90;;;;;;5070280;28;20044;-76
2023/06/05 10:21:19;;;;;;;0.57;0.57;;;18.50;99.90;;;;;;5069454;28;20085;-76
2023/06/05 10:23:56;;;;;;;0.63;0.63;;;18.40;99.90;;;;;;5070054;28;20122;-76
2023/06/05 10:26:37;;;;;;;0.20;0.20;;;18.20;99.90;;;;;;5069462;28;20044;-75
2023/06/05 10:29:37;;;;;;;0.20;0.20;;;18.00;99.90;;;;;;5069374;28;20044;-76
2023/06/05 10:32:07;;;;;;;0.40;0.40;;;17.90;99.90;;;;;;5069633;28;20523;-76
2023/06/05 10:34:47;;;;;;;0.20;0.20;;;17.80;99.90;;;;;;5070374;28;20161;-76
2023/06/05 10:37:34;;;;;;;0.40;0.40;;;17.80;99.90;;;;;;5070501;28;20485;-76
2023/06/05 10:40:00;;;;;;;0.30;0.30;;;17.80;99.90;;;;;;5069679;28;20044;-75
2023/06/05 10:42:27;;;;;;;0.20;0.20;;;17.80;99.90;;;;;;5074691;28;20119;-76
2023/06/05 10:44:53;;;;;;;0.13;0.13;;;17.90;99.90;;;;;;5046277;28;20040;-76
2023/06/05 10:47:49;;;;;;;0.52;0.52;;;18.00;99.90;;;;;;5069439;28;20486;-76
2023/06/05 10:50:19;;;;;;;0.70;0.70;;;18.00;99.90;;;;;;5049751;28;20064;-76
2023/06/05 10:52:53;;;;;;;0.20;0.20;;;17.90;99.90;;;;;;5068598;28;20486;-75
2023/06/05 10:55:20;;;;;;;0.38;0.35;;;17.80;99.90;;;;;;5069456;28;20045;-76
2023/06/05 10:58:02;;;;;;;0.38;0.38;;;17.90;99.90;;;;;;5069646;28;20048;-76
2023/06/05 11:00:29;;;;;;;0.40;0.30;;;17.90;99.90;;;;;;5069020;28;20044;-76
2023/06/05 11:02:55;;;;;;;0.40;0.40;;;17.90;99.90;;;;;;5069134;28;20549;-76
2023/06/05 11:05:21;;;;;;;0.30;0.30;;;18.00;99.90;;;;;;5052220;28;20040;-76
2023/06/05 11:07:47;;;;;;;0.90;0.90;;;18.00;99.90;;;;;;5059465;28;20043;-75
2023/06/05 11:10:20;;;;;;;0.20;0.20;;;18.00;99.90;;;;;;5068532;28;20120;-76
2023/06/05 11:12:46;;;;;;;0.20;0.20;;;17.90;99.90;;;;;;5068887;28;20082;-76
2023/06/05 11:15:12;;;;;;;;;;;18.10;99.90;;;;;;5068801;28;20098;-76
2023/06/05 11:17:43;;;;;;;0.20;0.20;;;18.20;99.90;;;;;;5068671;28;19917;-76
2023/06/05 11:20:28;;;;;;;0.52;0.52;;;18.20;99.90;;;;;;5068755;28;20045;-75
2023/06/05 11:22:55;;;;;;;0.20;0.20;;;18.20;99.90;;;;;;5069059;28;20047;-76
2023/06/05 11:25:21;;;;;;;0.40;0.40;;;18.40;99.90;;;;;;5067840;28;20044;-76
2023/06/05 11:27:54;;;;;;;;;;;18.50;99.90;;;;;;5070389;28;20047;-76
2023/06/05 11:30:22;;;;;;;0.25;0.25;;;18.60;99.90;;;;;;5068323;28;19920;-76
2023/06/05 11:32:52;;;;;;;0.20;0.20;;;18.80;99.90;;;;;;5068683;28;20098;-75
2023/06/05 11:35:21;;;;;;;0.22;0.22;;;19.00;99.90;;;;;;5051607;28;20044;-76
2023/06/05 11:37:47;;;;;;;0.20;0.20;;;19.00;99.90;;;;;;5068912;28;20052;-76
2023/06/05 11:40:24;;;;;;;0.20;0.20;;;18.80;99.90;;;;;;5051823;28;20040;-76
2023/06/05 11:42:50;;;;;;;0.40;0.40;;;18.70;99.90;;;;;;5077881;28;20110;-76
2023/06/05 11:45:16;;;;;;;0.20;0.20;;;18.90;99.90;;;;;;5075154;28;20463;-76
2023/06/05 11:47:41;;;;;;;0.20;0.20;;;19.00;99.90;;;;;;5068888;28;20083;-76
2023/06/05 11:50:08;;;;;;;;;;;19.10;99.90;;;;;;5068857;28;20488;-76
2023/06/05 11:52:35;;;;;;;0.52;0.52;;;19.00;99.90;;;;;;5051325;28;19920;-76
2023/06/05 11:55:22;;;;;;;0.30;0.30;;;18.90;99.90;;;;;;5068245;28;20121;-76
2023/06/05 11:57:49;;;;;;;0.28;0.28;;;19.00;99.90;;;;;;5051840;28;20040;-73
2023/06/05 12:00:22;;;;;;;0.20;0.20;;;19.00;99.90;;;;;;5068136;28;20080;-74
2023/06/05 12:02:48;;;;;;;0.30;0.30;;;19.20;99.90;;;;;;5068582;28;20048;-75
2023/06/05 12:05:15;;;;;;;0.30;0.30;;;19.40;99.90;;;;;;5067180;28;20056;-75
2023/06/05 12:07:41;;;;;;;0.10;0.10;;;19.60;99.90;;;;;;5048185;28;20052;-76
2023/06/05 12:10:08;;;;;;;0.32;0.32;;;19.80;99.90;;;;;;5048272;28;20116;-74
2023/06/05 12:12:53;;;;;;;0.45;0.45;;;19.70;99.90;;;;;;5048157;28;20079;-75
2023/06/05 12:15:20;;;;;;;0.20;0.20;;;19.50;99.90;;;;;;5064223;28;20073;-75
2023/06/05 12:17:54;;;;;;;0.30;0.30;;;19.40;99.90;;;;;;5051880;28;20386;-74
2023/06/05 12:20:22;;;;;;;0.40;0.40;;;19.20;99.90;;;;;;5067674;28;20072;-75
2023/06/05 12:22:48;;;;;;;0.30;0.30;;;19.20;99.90;;;;;;5067893;28;20036;-75
2023/06/05 12:25:22;;;;;;;0.20;0.20;;;19.10;99.90;;;;;;5062626;28;20390;-74
2023/06/05 12:27:52;;;;;;;0.20;0.20;;;19.10;99.90;;;;;;5048862;28;20500;-75
2023/06/05 12:30:18;;;;;;;0.20;0.20;;;19.10;99.90;;;;;;5031500;28;20409;-74
2023/06/05 12:32:44;;;;;;;0.20;0.20;;;19.30;99.90;;;;;;5047966;28;20040;-74
2023/06/05 12:35:28;;;;;;;0.77;0.77;;;19.40;99.90;;;;;;5064784;28;20110;-74
2023/06/05 12:38:00;;;;;;;0.30;0.30;;;19.50;99.90;;;;;;5051742;28;20886;-75
2023/06/05 12:40:25;;;;;;;0.30;0.30;;;19.70;99.90;;;;;;5050856;28;20662;-75
2023/06/05 12:42:51;;;;;;;0.30;0.30;;;19.70;99.90;;;;;;5059891;28;20067;-76
2023/06/05 12:45:17;;;;;;;0.30;0.30;;;19.60;99.90;;;;;;5090376;28;20064;-75
2023/06/05 12:47:43;;;;;;;;;;;19.70;99.90;;;;;;5068309;28;20044;-75
2023/06/05 12:50:13;;;;;;;0.20;0.20;;;19.90;99.90;;;;;;5067799;28;19920;-74
2023/06/05 12:52:40;;;;;;;0.45;0.45;;;20.10;99.90;;;;;;5051001;28;20049;-75
2023/06/05 12:55:08;;;;;;;0.40;0.40;;;20.20;99.90;;;;;;5067590;28;20060;-75
2023/06/05 12:57:34;;;;;;;0.55;0.55;;;20.30;99.90;;;;;;5068062;28;20059;-75
2023/06/05 13:00:11;;;;;;;0.60;0.60;;;20.70;99.90;;;;;;5062277;28;20045;-75